sensor_id;sensor_type;location;lat;lon;timestamp;pressure;altitude;pressure_sealevel;temperature;humidity
22335;BME280;11335;43.848;25.958;2022-07-30T00:02:41;101025.22;;;25.31;100.00
22335;BME280;11335;43.848;25.958;2022-07-30T00:05:27;101013.41;;;25.57;100.00
22335;BME280;11335;43.848;25.958;2022-07-30T00:08:13;101008.59;;;25.73;100.00
22335;BME280;11335;43.848;25.958;2022-07-30T00:10:58;101004.88;;;25.86;100.00
22335;BME280;11335;43.848;25.958;2022-07-30T00:13:44;101003.38;;;25.82;100.00
22335;BME280;11335;43.848;25.958;2022-07-30T00:16:30;100997.50;;;26.01;100.00
22335;BME280;11335;43.848;25.958;2022-07-30T00:19:16;101002.94;;;25.65;100.00
22335;BME280;11335;43.848;25.958;2022-07-30T00:22:02;101010.31;;;25.97;100.00
22335;BME280;11335;43.848;25.958;2022-07-30T00:24:48;100999.38;;;25.64;100.00
22335;BME280;11335;43.848;25.958;2022-07-30T00:27:33;101004.81;;;25.75;100.00
22335;BME280;11335;43.848;25.958;2022-07-30T00:30:19;101017.31;;;25.87;100.00
22335;BME280;11335;43.848;25.958;2022-07-30T00:33:05;101013.31;;;25.93;100.00
22335;BME280;11335;43.848;25.958;2022-07-30T00:35:51;101014.63;;;25.87;100.00
22335;BME280;11335;43.848;25.958;2022-07-30T00:38:37;101009.47;;;25.84;100.00
22335;BME280;11335;43.848;25.958;2022-07-30T00:41:23;101007.00;;;25.70;100.00
22335;BME280;11335;43.848;25.958;2022-07-30T00:44:09;101014.56;;;25.76;100.00
22335;BME280;11335;43.848;25.958;2022-07-30T00:46:55;101007.63;;;25.74;100.00
22335;BME280;11335;43.848;25.958;2022-07-30T00:49:41;101006.22;;;25.57;100.00
22335;BME280;11335;43.848;25.958;2022-07-30T00:52:30;101011.44;;;25.35;100.00
22335;BME280;11335;43.848;25.958;2022-07-30T00:55:16;101000.75;;;25.23;100.00
22335;BME280;11335;43.848;25.958;2022-07-30T00:58:02;100994.59;;;24.97;100.00
22335;BME280;11335;43.848;25.958;2022-07-30T01:00:48;100996.28;;;25.11;100.00
22335;BME280;11335;43.848;25.958;2022-07-30T01:03:33;100990.00;;;25.59;100.00
22335;BME280;11335;43.848;25.958;2022-07-30T01:06:19;100991.13;;;25.44;100.00
22335;BME280;11335;43.848;25.958;2022-07-30T01:09:06;100981.81;;;25.37;100.00
22335;BME280;11335;43.848;25.958;2022-07-30T01:11:52;100986.13;;;25.74;100.00
22335;BME280;11335;43.848;25.958;2022-07-30T01:14:38;100988.63;;;25.53;100.00
22335;BME280;11335;43.848;25.958;2022-07-30T01:17:24;100990.66;;;25.50;100.00
22335;BME280;11335;43.848;25.958;2022-07-30T01:20:23;100986.34;;;25.71;100.00
22335;BME280;11335;43.848;25.958;2022-07-30T01:23:22;100987.66;;;25.31;100.00
22335;BME280;11335;43.848;25.958;2022-07-30T01:26:15;100985.66;;;25.09;100.00
22335;BME280;11335;43.848;25.958;2022-07-30T01:29:02;100977.03;;;25.17;100.00
22335;BME280;11335;43.848;25.958;2022-07-30T01:31:50;100978.91;;;25.40;100.00
22335;BME280;11335;43.848;25.958;2022-07-30T01:34:41;100979.38;;;25.34;100.00
22335;BME280;11335;43.848;25.958;2022-07-30T01:37:29;100983.44;;;25.63;100.00
22335;BME280;11335;43.848;25.958;2022-07-30T01:40:16;100980.50;;;25.42;100.00
22335;BME280;11335;43.848;25.958;2022-07-30T01:43:03;100975.09;;;25.31;100.00
22335;BME280;11335;43.848;25.958;2022-07-30T01:45:51;100976.97;;;25.65;100.00
22335;BME280;11335;43.848;25.958;2022-07-30T01:48:39;100975.72;;;25.58;100.00
22335;BME280;11335;43.848;25.958;2022-07-30T01:51:27;100974.94;;;25.45;100.00
22335;BME280;11335;43.848;25.958;2022-07-30T01:54:17;100974.56;;;25.14;100.00
22335;BME280;11335;43.848;25.958;2022-07-30T01:57:03;100974.44;;;24.92;100.00
22335;BME280;11335;43.848;25.958;2022-07-30T01:59:53;100965.41;;;25.05;100.00
22335;BME280;11335;43.848;25.958;2022-07-30T02:02:39;100971.66;;;24.93;100.00
22335;BME280;11335;43.848;25.958;2022-07-30T02:05:27;100967.38;;;24.91;100.00
22335;BME280;11335;43.848;25.958;2022-07-30T02:08:25;100965.03;;;25.10;100.00
22335;BME280;11335;43.848;25.958;2022-07-30T02:11:15;100964.53;;;25.05;100.00
22335;BME280;11335;43.848;25.958;2022-07-30T02:14:24;100961.28;;;25.12;100.00
22335;BME280;11335;43.848;25.958;2022-07-30T02:17:18;100962.41;;;24.97;100.00
22335;BME280;11335;43.848;25.958;2022-07-30T02:20:06;100966.75;;;24.50;100.00
22335;BME280;11335;43.848;25.958;2022-07-30T02:22:57;100968.25;;;24.54;100.00
22335;BME280;11335;43.848;25.958;2022-07-30T02:25:48;100964.94;;;24.13;100.00
22335;BME280;11335;43.848;25.958;2022-07-30T02:28:38;100963.97;;;24.26;100.00
22335;BME280;11335;43.848;25.958;2022-07-30T02:31:26;100959.72;;;24.61;100.00
22335;BME280;11335;43.848;25.958;2022-07-30T02:34:15;100961.06;;;24.54;100.00
22335;BME280;11335;43.848;25.958;2022-07-30T02:37:01;100960.94;;;24.81;100.00
22335;BME280;11335;43.848;25.958;2022-07-30T02:39:50;100962.06;;;24.53;100.00
22335;BME280;11335;43.848;25.958;2022-07-30T02:42:37;100955.63;;;24.68;100.00
22335;BME280;11335;43.848;25.958;2022-07-30T02:45:24;100959.47;;;24.77;100.00
22335;BME280;11335;43.848;25.958;2022-07-30T02:48:11;100956.59;;;24.55;100.00
22335;BME280;11335;43.848;25.958;2022-07-30T02:50:59;100969.44;;;24.75;100.00
22335;BME280;11335;43.848;25.958;2022-07-30T02:53:47;100965.47;;;24.80;100.00
22335;BME280;11335;43.848;25.958;2022-07-30T02:56:35;100969.88;;;24.44;100.00
22335;BME280;11335;43.848;25.958;2022-07-30T02:59:22;100965.47;;;24.55;100.00
22335;BME280;11335;43.848;25.958;2022-07-30T03:02:10;100972.13;;;24.62;100.00
22335;BME280;11335;43.848;25.958;2022-07-30T03:04:57;100970.81;;;24.55;100.00
22335;BME280;11335;43.848;25.958;2022-07-30T03:07:45;100972.00;;;24.51;100.00
22335;BME280;11335;43.848;25.958;2022-07-30T03:10:31;100974.03;;;24.35;100.00
22335;BME280;11335;43.848;25.958;2022-07-30T03:13:19;100968.28;;;24.16;100.00
22335;BME280;11335;43.848;25.958;2022-07-30T03:16:08;100978.78;;;24.07;100.00
22335;BME280;11335;43.848;25.958;2022-07-30T03:18:55;100975.44;;;24.16;100.00
22335;BME280;11335;43.848;25.958;2022-07-30T03:21:44;100970.75;;;24.32;100.00
22335;BME280;11335;43.848;25.958;2022-07-30T03:24:31;100979.41;;;24.48;100.00
22335;BME280;11335;43.848;25.958;2022-07-30T03:27:17;100985.63;;;24.48;100.00
22335;BME280;11335;43.848;25.958;2022-07-30T03:30:04;100992.06;;;24.33;100.00
22335;BME280;11335;43.848;25.958;2022-07-30T03:32:52;100993.97;;;24.06;100.00
22335;BME280;11335;43.848;25.958;2022-07-30T03:35:40;100993.25;;;24.29;100.00
22335;BME280;11335;43.848;25.958;2022-07-30T03:38:27;101000.63;;;24.63;100.00
22335;BME280;11335;43.848;25.958;2022-07-30T03:41:14;101002.78;;;24.33;100.00
22335;BME280;11335;43.848;25.958;2022-07-30T03:44:00;101010.06;;;24.56;100.00
22335;BME280;11335;43.848;25.958;2022-07-30T03:46:47;100999.84;;;24.11;100.00
22335;BME280;11335;43.848;25.958;2022-07-30T03:49:35;100993.84;;;23.69;100.00
22335;BME280;11335;43.848;25.958;2022-07-30T03:52:20;100995.22;;;24.01;100.00
22335;BME280;11335;43.848;25.958;2022-07-30T03:55:08;101001.16;;;23.79;100.00
22335;BME280;11335;43.848;25.958;2022-07-30T03:57:55;100993.84;;;23.69;100.00
22335;BME280;11335;43.848;25.958;2022-07-30T04:00:41;100993.69;;;23.84;100.00
22335;BME280;11335;43.848;25.958;2022-07-30T04:03:28;100994.91;;;23.93;100.00
22335;BME280;11335;43.848;25.958;2022-07-30T04:06:14;101000.41;;;23.77;100.00
22335;BME280;11335;43.848;25.958;2022-07-30T04:09:00;101001.38;;;23.89;100.00
22335;BME280;11335;43.848;25.958;2022-07-30T04:11:46;101005.22;;;23.99;100.00
22335;BME280;11335;43.848;25.958;2022-07-30T04:14:43;101000.81;;;23.98;100.00
22335;BME280;11335;43.848;25.958;2022-07-30T04:17:43;101004.28;;;23.86;100.00
22335;BME280;11335;43.848;25.958;2022-07-30T04:20:34;101010.19;;;24.30;100.00
22335;BME280;11335;43.848;25.958;2022-07-30T04:23:21;101013.13;;;24.13;100.00
22335;BME280;11335;43.848;25.958;2022-07-30T04:26:07;101019.91;;;24.06;100.00
22335;BME280;11335;43.848;25.958;2022-07-30T04:28:53;101007.13;;;23.97;100.00
22335;BME280;11335;43.848;25.958;2022-07-30T04:31:40;101006.84;;;23.87;100.00
22335;BME280;11335;43.848;25.958;2022-07-30T04:34:26;101013.69;;;24.18;100.00
22335;BME280;11335;43.848;25.958;2022-07-30T04:37:11;101011.72;;;23.95;100.00
22335;BME280;11335;43.848;25.958;2022-07-30T04:39:57;101015.25;;;23.95;100.00
22335;BME280;11335;43.848;25.958;2022-07-30T04:42:43;101012.22;;;24.39;100.00
22335;BME280;11335;43.848;25.958;2022-07-30T04:45:29;101015.97;;;24.36;100.00
22335;BME280;11335;43.848;25.958;2022-07-30T04:48:14;101013.25;;;24.24;100.00
22335;BME280;11335;43.848;25.958;2022-07-30T04:51:04;101017.22;;;24.06;100.00
22335;BME280;11335;43.848;25.958;2022-07-30T04:53:54;101010.03;;;24.06;100.00
22335;BME280;11335;43.848;25.958;2022-07-30T04:56:46;101010.78;;;24.08;100.00
22335;BME280;11335;43.848;25.958;2022-07-30T04:59:32;101013.69;;;24.18;100.00
22335;BME280;11335;43.848;25.958;2022-07-30T05:02:24;101003.84;;;24.56;100.00
22335;BME280;11335;43.848;25.958;2022-07-30T05:05:11;101002.56;;;24.74;100.00
22335;BME280;11335;43.848;25.958;2022-07-30T05:08:00;101000.47;;;25.02;100.00
22335;BME280;11335;43.848;25.958;2022-07-30T05:10:46;100994.44;;;25.11;100.00
22335;BME280;11335;43.848;25.958;2022-07-30T05:13:31;100999.41;;;25.41;100.00
22335;BME280;11335;43.848;25.958;2022-07-30T05:16:17;100998.19;;;25.68;100.00
22335;BME280;11335;43.848;25.958;2022-07-30T05:19:03;101004.72;;;25.53;100.00
22335;BME280;11335;43.848;25.958;2022-07-30T05:21:49;101004.84;;;25.16;100.00
22335;BME280;11335;43.848;25.958;2022-07-30T05:24:34;101009.91;;;25.44;100.00
22335;BME280;11335;43.848;25.958;2022-07-30T05:27:20;101009.75;;;25.34;100.00
22335;BME280;11335;43.848;25.958;2022-07-30T05:30:07;101004.38;;;25.58;100.00
22335;BME280;11335;43.848;25.958;2022-07-30T05:32:52;101007.19;;;25.91;100.00
22335;BME280;11335;43.848;25.958;2022-07-30T05:35:38;100991.69;;;25.36;100.00
22335;BME280;11335;43.848;25.958;2022-07-30T05:38:24;100991.28;;;25.77;100.00
22335;BME280;11335;43.848;25.958;2022-07-30T05:41:10;100997.19;;;25.58;100.00
22335;BME280;11335;43.848;25.958;2022-07-30T05:43:55;100996.59;;;25.89;100.00
22335;BME280;11335;43.848;25.958;2022-07-30T05:46:41;100996.31;;;26.16;100.00
22335;BME280;11335;43.848;25.958;2022-07-30T05:49:27;101002.59;;;26.49;100.00
22335;BME280;11335;43.848;25.958;2022-07-30T05:52:13;101001.69;;;26.27;100.00
22335;BME280;11335;43.848;25.958;2022-07-30T05:54:58;101009.16;;;26.23;100.00
22335;BME280;11335;43.848;25.958;2022-07-30T05:57:44;101007.38;;;26.57;100.00
22335;BME280;11335;43.848;25.958;2022-07-30T06:00:30;101018.00;;;26.47;100.00
22335;BME280;11335;43.848;25.958;2022-07-30T06:03:16;101010.13;;;26.68;100.00
22335;BME280;11335;43.848;25.958;2022-07-30T06:06:03;101010.34;;;26.65;100.00
22335;BME280;11335;43.848;25.958;2022-07-30T06:08:49;101008.13;;;26.92;100.00
22335;BME280;11335;43.848;25.958;2022-07-30T06:11:35;101001.66;;;26.94;100.00
22335;BME280;11335;43.848;25.958;2022-07-30T06:14:21;101002.38;;;26.85;100.00
22335;BME280;11335;43.848;25.958;2022-07-30T06:17:07;100999.84;;;26.73;100.00
22335;BME280;11335;43.848;25.958;2022-07-30T06:19:53;101000.09;;;26.81;100.00
22335;BME280;11335;43.848;25.958;2022-07-30T06:22:39;101005.31;;;27.04;100.00
22335;BME280;11335;43.848;25.958;2022-07-30T06:25:25;100996.13;;;27.18;100.00
22335;BME280;11335;43.848;25.958;2022-07-30T06:28:11;100994.91;;;27.22;100.00
22335;BME280;11335;43.848;25.958;2022-07-30T06:30:56;100988.41;;;27.35;100.00
22335;BME280;11335;43.848;25.958;2022-07-30T06:33:43;100992.16;;;27.44;100.00
22335;BME280;11335;43.848;25.958;2022-07-30T06:36:29;100990.03;;;27.58;100.00
22335;BME280;11335;43.848;25.958;2022-07-30T06:39:15;100990.91;;;27.91;100.00
22335;BME280;11335;43.848;25.958;2022-07-30T06:42:01;100990.00;;;28.01;100.00
22335;BME280;11335;43.848;25.958;2022-07-30T06:44:47;100999.44;;;28.16;100.00
22335;BME280;11335;43.848;25.958;2022-07-30T06:47:32;100990.53;;;28.16;100.00
22335;BME280;11335;43.848;25.958;2022-07-30T06:50:19;100984.63;;;28.42;100.00
22335;BME280;11335;43.848;25.958;2022-07-30T06:53:05;100982.63;;;28.44;100.00
22335;BME280;11335;43.848;25.958;2022-07-30T06:55:51;100983.66;;;28.32;100.00
22335;BME280;11335;43.848;25.958;2022-07-30T06:58:37;100973.38;;;28.67;100.00
22335;BME280;11335;43.848;25.958;2022-07-30T07:01:23;100966.25;;;28.96;100.00
22335;BME280;11335;43.848;25.958;2022-07-30T07:04:09;100957.81;;;29.10;100.00
22335;BME280;11335;43.848;25.958;2022-07-30T07:06:55;100960.63;;;29.09;100.00
22335;BME280;11335;43.848;25.958;2022-07-30T07:09:40;100967.94;;;29.56;100.00
22335;BME280;11335;43.848;25.958;2022-07-30T07:12:26;100965.22;;;29.56;100.00
22335;BME280;11335;43.848;25.958;2022-07-30T07:15:12;100957.72;;;29.50;100.00
22335;BME280;11335;43.848;25.958;2022-07-30T07:17:57;100961.00;;;29.72;100.00
22335;BME280;11335;43.848;25.958;2022-07-30T07:20:43;100967.84;;;29.76;100.00
22335;BME280;11335;43.848;25.958;2022-07-30T07:23:31;100960.31;;;29.61;100.00
22335;BME280;11335;43.848;25.958;2022-07-30T07:26:16;100951.63;;;29.95;100.00
22335;BME280;11335;43.848;25.958;2022-07-30T07:29:02;100958.16;;;29.93;100.00
22335;BME280;11335;43.848;25.958;2022-07-30T07:31:48;100953.59;;;30.22;100.00
22335;BME280;11335;43.848;25.958;2022-07-30T07:34:33;100956.06;;;30.42;100.00
22335;BME280;11335;43.848;25.958;2022-07-30T07:37:19;100956.03;;;30.15;100.00
22335;BME280;11335;43.848;25.958;2022-07-30T07:40:05;100952.19;;;30.91;100.00
22335;BME280;11335;43.848;25.958;2022-07-30T07:42:52;100959.25;;;31.01;100.00
22335;BME280;11335;43.848;25.958;2022-07-30T07:45:37;100946.97;;;31.07;100.00
22335;BME280;11335;43.848;25.958;2022-07-30T07:48:23;100950.66;;;31.51;100.00
22335;BME280;11335;43.848;25.958;2022-07-30T07:51:09;100956.53;;;31.46;100.00
22335;BME280;11335;43.848;25.958;2022-07-30T07:53:55;100960.44;;;31.79;97.12
22335;BME280;11335;43.848;25.958;2022-07-30T07:56:41;100955.06;;;31.69;94.41
22335;BME280;11335;43.848;25.958;2022-07-30T07:59:26;100947.97;;;31.51;97.10
22335;BME280;11335;43.848;25.958;2022-07-30T08:02:12;100956.97;;;32.12;94.64
22335;BME280;11335;43.848;25.958;2022-07-30T08:04:58;100944.88;;;32.49;91.36
22335;BME280;11335;43.848;25.958;2022-07-30T08:07:44;100952.91;;;32.59;87.56
22335;BME280;11335;43.848;25.958;2022-07-30T08:10:30;100958.91;;;32.45;87.35
22335;BME280;11335;43.848;25.958;2022-07-30T08:13:16;100947.66;;;32.65;82.86
22335;BME280;11335;43.848;25.958;2022-07-30T08:16:02;100950.69;;;32.88;85.35
22335;BME280;11335;43.848;25.958;2022-07-30T08:18:48;100948.69;;;32.64;87.46
22335;BME280;11335;43.848;25.958;2022-07-30T08:21:34;100945.66;;;33.09;87.32
22335;BME280;11335;43.848;25.958;2022-07-30T08:24:20;100944.88;;;32.49;87.88
22335;BME280;11335;43.848;25.958;2022-07-30T08:27:06;100949.66;;;33.38;84.20
22335;BME280;11335;43.848;25.958;2022-07-30T08:29:52;100955.16;;;33.70;84.36
22335;BME280;11335;43.848;25.958;2022-07-30T08:32:38;100949.41;;;33.89;81.58
22335;BME280;11335;43.848;25.958;2022-07-30T08:35:23;100950.56;;;34.35;71.65
22335;BME280;11335;43.848;25.958;2022-07-30T08:38:11;100952.91;;;34.30;72.63
22335;BME280;11335;43.848;25.958;2022-07-30T08:40:57;100947.69;;;34.83;73.98
22335;BME280;11335;43.848;25.958;2022-07-30T08:43:44;100937.63;;;33.81;78.82
22335;BME280;11335;43.848;25.958;2022-07-30T08:46:32;100936.13;;;34.10;81.50
22335;BME280;11335;43.848;25.958;2022-07-30T08:49:19;100937.44;;;34.46;80.38
22335;BME280;11335;43.848;25.958;2022-07-30T08:52:05;100924.97;;;34.60;81.41
22335;BME280;11335;43.848;25.958;2022-07-30T08:54:54;100930.16;;;34.39;82.25
22335;BME280;11335;43.848;25.958;2022-07-30T08:57:40;100939.53;;;34.83;78.76
22335;BME280;11335;43.848;25.958;2022-07-30T09:00:26;100930.88;;;34.71;66.67
22335;BME280;11335;43.848;25.958;2022-07-30T09:03:12;100927.69;;;34.60;74.17
22335;BME280;11335;43.848;25.958;2022-07-30T09:06:03;100920.13;;;34.31;76.35
22335;BME280;11335;43.848;25.958;2022-07-30T09:08:49;100915.88;;;34.13;78.27
22335;BME280;11335;43.848;25.958;2022-07-30T09:11:35;100911.34;;;33.97;81.34
22335;BME280;11335;43.848;25.958;2022-07-30T09:14:21;100908.69;;;34.44;74.27
22335;BME280;11335;43.848;25.958;2022-07-30T09:17:07;100905.94;;;34.98;76.39
22335;BME280;11335;43.848;25.958;2022-07-30T09:20:04;100906.72;;;35.38;73.79
22335;BME280;11335;43.848;25.958;2022-07-30T09:22:53;100903.03;;;35.00;71.03
22335;BME280;11335;43.848;25.958;2022-07-30T09:25:42;100892.72;;;34.87;71.87
22335;BME280;11335;43.848;25.958;2022-07-30T09:28:31;100897.66;;;35.14;72.11
22335;BME280;11335;43.848;25.958;2022-07-30T09:31:18;100877.91;;;35.12;71.86
22335;BME280;11335;43.848;25.958;2022-07-30T09:34:22;100875.59;;;34.63;74.97
22335;BME280;11335;43.848;25.958;2022-07-30T09:39:54;100867.50;;;35.16;76.59
22335;BME280;11335;43.848;25.958;2022-07-30T09:42:40;100863.81;;;35.09;77.34
22335;BME280;11335;43.848;25.958;2022-07-30T09:45:26;100861.78;;;35.34;73.34
22335;BME280;11335;43.848;25.958;2022-07-30T09:48:22;100871.16;;;34.70;76.42
22335;BME280;11335;43.848;25.958;2022-07-30T09:51:09;100866.53;;;34.78;75.72
22335;BME280;11335;43.848;25.958;2022-07-30T09:53:56;100868.44;;;35.00;78.39
22335;BME280;11335;43.848;25.958;2022-07-30T09:56:45;100865.19;;;35.05;72.77
22335;BME280;11335;43.848;25.958;2022-07-30T09:59:31;100859.13;;;34.95;63.73
22335;BME280;11335;43.848;25.958;2022-07-30T10:02:17;100862.44;;;35.36;65.34
22335;BME280;11335;43.848;25.958;2022-07-30T10:05:22;100857.72;;;35.52;71.60
22335;BME280;11335;43.848;25.958;2022-07-30T10:08:08;100868.84;;;35.88;71.13
22335;BME280;11335;43.848;25.958;2022-07-30T10:10:54;100855.94;;;35.14;77.35
22335;BME280;11335;43.848;25.958;2022-07-30T10:13:41;100849.72;;;35.05;77.39
22335;BME280;11335;43.848;25.958;2022-07-30T10:16:27;100837.78;;;34.76;81.21
22335;BME280;11335;43.848;25.958;2022-07-30T10:19:13;100827.84;;;34.52;78.11
22335;BME280;11335;43.848;25.958;2022-07-30T10:22:00;100833.50;;;35.35;75.23
22335;BME280;11335;43.848;25.958;2022-07-30T10:24:46;100828.53;;;35.38;75.11
22335;BME280;11335;43.848;25.958;2022-07-30T10:27:32;100824.44;;;35.11;74.62
22335;BME280;11335;43.848;25.958;2022-07-30T10:30:19;100828.28;;;35.25;72.60
22335;BME280;11335;43.848;25.958;2022-07-30T10:33:06;100826.06;;;35.20;72.36
22335;BME280;11335;43.848;25.958;2022-07-30T10:35:52;100814.88;;;34.93;72.14
22335;BME280;11335;43.848;25.958;2022-07-30T10:38:39;100807.41;;;35.40;68.25
22335;BME280;11335;43.848;25.958;2022-07-30T10:48:01;100795.94;;;35.22;69.69
22335;BME280;11335;43.848;25.958;2022-07-30T10:50:54;100802.19;;;34.85;67.79
22335;BME280;11335;43.848;25.958;2022-07-30T10:53:41;100801.56;;;34.67;68.67
22335;BME280;11335;43.848;25.958;2022-07-30T10:56:31;100802.25;;;35.45;65.57
22335;BME280;11335;43.848;25.958;2022-07-30T10:59:16;100796.97;;;35.81;62.94
22335;BME280;11335;43.848;25.958;2022-07-30T11:02:08;100790.84;;;35.79;60.04
22335;BME280;11335;43.848;25.958;2022-07-30T11:05:33;100788.03;;;35.27;61.69
22335;BME280;11335;43.848;25.958;2022-07-30T11:08:38;100780.59;;;35.81;61.65
22335;BME280;11335;43.848;25.958;2022-07-30T11:14:13;100772.91;;;35.62;60.35
22335;BME280;11335;43.848;25.958;2022-07-30T11:16:59;100771.81;;;35.71;60.50
22335;BME280;11335;43.848;25.958;2022-07-30T11:22:46;100766.56;;;36.27;53.18
22335;BME280;11335;43.848;25.958;2022-07-30T11:28:44;100766.47;;;36.21;51.95
22335;BME280;11335;43.848;25.958;2022-07-30T11:34:23;100769.53;;;35.60;56.77
22335;BME280;11335;43.848;25.958;2022-07-30T11:37:13;100762.63;;;36.15;53.71
22335;BME280;11335;43.848;25.958;2022-07-30T11:40:05;100740.72;;;35.94;54.23
22335;BME280;11335;43.848;25.958;2022-07-30T11:43:21;100739.69;;;35.81;54.55
22335;BME280;11335;43.848;25.958;2022-07-30T11:46:12;100731.59;;;35.87;53.07
22335;BME280;11335;43.848;25.958;2022-07-30T11:49:00;100736.84;;;36.03;52.83
22335;BME280;11335;43.848;25.958;2022-07-30T11:51:52;100722.94;;;36.48;49.71
22335;BME280;11335;43.848;25.958;2022-07-30T11:54:54;100718.25;;;36.42;49.55
22335;BME280;11335;43.848;25.958;2022-07-30T11:57:41;100704.94;;;36.89;50.08
22335;BME280;11335;43.848;25.958;2022-07-30T12:00:40;100709.00;;;36.22;49.55
22335;BME280;11335;43.848;25.958;2022-07-30T12:03:27;100703.41;;;36.87;48.23
22335;BME280;11335;43.848;25.958;2022-07-30T12:06:16;100697.47;;;37.25;46.49
22335;BME280;11335;43.848;25.958;2022-07-30T12:09:05;100689.22;;;36.98;46.09
22335;BME280;11335;43.848;25.958;2022-07-30T12:11:51;100692.91;;;37.32;41.13
22335;BME280;11335;43.848;25.958;2022-07-30T12:14:37;100686.13;;;36.80;42.01
22335;BME280;11335;43.848;25.958;2022-07-30T12:17:40;100686.06;;;36.94;42.15
22335;BME280;11335;43.848;25.958;2022-07-30T12:20:26;100666.72;;;37.17;44.10
22335;BME280;11335;43.848;25.958;2022-07-30T12:23:13;100663.59;;;36.99;44.79
22335;BME280;11335;43.848;25.958;2022-07-30T12:25:59;100662.25;;;36.46;41.21
22335;BME280;11335;43.848;25.958;2022-07-30T12:28:45;100658.84;;;36.23;41.59
22335;BME280;11335;43.848;25.958;2022-07-30T12:31:32;100656.00;;;36.17;41.52
22335;BME280;11335;43.848;25.958;2022-07-30T12:34:22;100646.97;;;36.16;40.80
22335;BME280;11335;43.848;25.958;2022-07-30T12:37:08;100653.25;;;36.52;40.43
22335;BME280;11335;43.848;25.958;2022-07-30T12:40:11;100641.44;;;36.87;40.53
22335;BME280;11335;43.848;25.958;2022-07-30T12:42:57;100637.31;;;36.98;38.78
22335;BME280;11335;43.848;25.958;2022-07-30T12:45:43;100626.81;;;36.53;38.86
22335;BME280;11335;43.848;25.958;2022-07-30T12:48:29;100618.44;;;37.03;38.02
22335;BME280;11335;43.848;25.958;2022-07-30T12:51:14;100608.84;;;37.41;37.16
22335;BME280;11335;43.848;25.958;2022-07-30T12:54:13;100595.22;;;37.54;37.86
22335;BME280;11335;43.848;25.958;2022-07-30T12:57:01;100601.28;;;37.90;36.29
22335;BME280;11335;43.848;25.958;2022-07-30T13:00:00;100594.19;;;38.02;35.78
22335;BME280;11335;43.848;25.958;2022-07-30T13:02:47;100588.13;;;36.98;36.12
22335;BME280;11335;43.848;25.958;2022-07-30T13:05:47;100580.47;;;37.48;35.76
22335;BME280;11335;43.848;25.958;2022-07-30T13:08:49;100577.44;;;37.30;35.30
22335;BME280;11335;43.848;25.958;2022-07-30T13:11:40;100576.91;;;37.14;35.47
22335;BME280;11335;43.848;25.958;2022-07-30T13:14:26;100561.88;;;36.97;35.69
22335;BME280;11335;43.848;25.958;2022-07-30T13:17:11;100560.44;;;37.41;35.29
22335;BME280;11335;43.848;25.958;2022-07-30T13:19:57;100566.69;;;37.63;34.90
22335;BME280;11335;43.848;25.958;2022-07-30T13:22:45;100556.19;;;37.66;34.67
22335;BME280;11335;43.848;25.958;2022-07-30T13:25:31;100545.22;;;36.92;35.49
22335;BME280;11335;43.848;25.958;2022-07-30T13:28:17;100534.88;;;37.55;34.81
22335;BME280;11335;43.848;25.958;2022-07-30T13:31:03;100532.19;;;37.62;33.78
22335;BME280;11335;43.848;25.958;2022-07-30T13:33:49;100533.09;;;37.35;35.54
22335;BME280;11335;43.848;25.958;2022-07-30T13:36:35;100531.03;;;37.43;34.39
22335;BME280;11335;43.848;25.958;2022-07-30T13:39:20;100527.03;;;37.05;34.19
22335;BME280;11335;43.848;25.958;2022-07-30T13:42:07;100528.09;;;37.45;34.22
22335;BME280;11335;43.848;25.958;2022-07-30T13:44:52;100524.91;;;37.41;33.33
22335;BME280;11335;43.848;25.958;2022-07-30T13:47:38;100518.78;;;36.99;33.57
22335;BME280;11335;43.848;25.958;2022-07-30T13:50:24;100508.84;;;37.25;33.32
22335;BME280;11335;43.848;25.958;2022-07-30T13:53:10;100506.13;;;37.25;33.91
22335;BME280;11335;43.848;25.958;2022-07-30T13:55:56;100503.44;;;37.32;32.82
22335;BME280;11335;43.848;25.958;2022-07-30T13:58:45;100505.75;;;37.35;32.80
22335;BME280;11335;43.848;25.958;2022-07-30T14:01:31;100502.59;;;36.97;33.12
22335;BME280;11335;43.848;25.958;2022-07-30T14:04:17;100509.75;;;36.98;33.45
22335;BME280;11335;43.848;25.958;2022-07-30T14:07:02;100494.63;;;36.68;33.63
22335;BME280;11335;43.848;25.958;2022-07-30T14:09:48;100491.25;;;37.00;33.54
22335;BME280;11335;43.848;25.958;2022-07-30T14:12:34;100496.66;;;36.60;33.64
22335;BME280;11335;43.848;25.958;2022-07-30T14:15:24;100485.78;;;37.34;32.64
22335;BME280;11335;43.848;25.958;2022-07-30T14:18:10;100484.81;;;36.74;32.76
22335;BME280;11335;43.848;25.958;2022-07-30T14:20:56;100484.94;;;37.40;31.45
22335;BME280;11335;43.848;25.958;2022-07-30T14:23:42;100478.78;;;37.25;31.81
22335;BME280;11335;43.848;25.958;2022-07-30T14:26:28;100478.38;;;37.95;31.50
22335;BME280;11335;43.848;25.958;2022-07-30T14:29:14;100481.56;;;37.32;32.47
22335;BME280;11335;43.848;25.958;2022-07-30T14:32:00;100473.28;;;37.66;32.60
22335;BME280;11335;43.848;25.958;2022-07-30T14:34:47;100474.47;;;37.44;32.57
22335;BME280;11335;43.848;25.958;2022-07-30T14:37:32;100466.16;;;37.18;32.92
22335;BME280;11335;43.848;25.958;2022-07-30T14:40:19;100466.84;;;37.33;32.88
22335;BME280;11335;43.848;25.958;2022-07-30T14:43:04;100463.94;;;37.00;32.49